sensor_id;sensor_type;location;lat;lon;timestamp;P1;durP1;ratioP1;P2;durP2;ratioP2
4601;SDS011;2313;48.552;9.370;2022-08-11T00:00:11;2.57;;;1.80;;
4601;SDS011;2313;48.552;9.370;2022-08-11T00:05:09;2.10;;;1.90;;
4601;SDS011;2313;48.552;9.370;2022-08-11T00:07:42;3.13;;;2.00;;
4601;SDS011;2313;48.552;9.370;2022-08-11T00:10:11;4.57;;;2.20;;
4601;SDS011;2313;48.552;9.370;2022-08-11T00:12:38;4.00;;;1.70;;
4601;SDS011;2313;48.552;9.370;2022-08-11T00:15:06;2.33;;;1.87;;
4601;SDS011;2313;48.552;9.370;2022-08-11T00:17:33;5.37;;;2.60;;
4601;SDS011;2313;48.552;9.370;2022-08-11T00:20:00;2.47;;;2.07;;
4601;SDS011;2313;48.552;9.370;2022-08-11T00:22:29;1.50;;;1.40;;
4601;SDS011;2313;48.552;9.370;2022-08-11T00:24:56;4.00;;;1.80;;
4601;SDS011;2313;48.552;9.370;2022-08-11T00:27:35;5.53;;;2.43;;
4601;SDS011;2313;48.552;9.370;2022-08-11T00:30:03;6.90;;;1.83;;
4601;SDS011;2313;48.552;9.370;2022-08-11T00:32:32;3.93;;;2.13;;
4601;SDS011;2313;48.552;9.370;2022-08-11T00:35:00;3.00;;;1.93;;
4601;SDS011;2313;48.552;9.370;2022-08-11T00:37:28;4.60;;;1.80;;
4601;SDS011;2313;48.552;9.370;2022-08-11T00:39:55;2.47;;;2.27;;
4601;SDS011;2313;48.552;9.370;2022-08-11T00:42:26;3.40;;;1.60;;
4601;SDS011;2313;48.552;9.370;2022-08-11T00:50:48;8.90;;;2.37;;
4601;SDS011;2313;48.552;9.370;2022-08-11T00:53:45;4.80;;;2.00;;
4601;SDS011;2313;48.552;9.370;2022-08-11T01:02:18;3.50;;;2.00;;
4601;SDS011;2313;48.552;9.370;2022-08-11T01:19:15;5.40;;;2.30;;
4601;SDS011;2313;48.552;9.370;2022-08-11T01:34:08;3.43;;;2.50;;
4601;SDS011;2313;48.552;9.370;2022-08-11T01:50:44;4.70;;;1.83;;
4601;SDS011;2313;48.552;9.370;2022-08-11T02:04:38;4.30;;;2.37;;
4601;SDS011;2313;48.552;9.370;2022-08-11T02:07:20;6.20;;;2.30;;
4601;SDS011;2313;48.552;9.370;2022-08-11T02:13:39;2.30;;;2.10;;
4601;SDS011;2313;48.552;9.370;2022-08-11T02:19:12;5.13;;;2.27;;
4601;SDS011;2313;48.552;9.370;2022-08-11T02:28:48;3.20;;;2.20;;
4601;SDS011;2313;48.552;9.370;2022-08-11T02:35:01;3.27;;;2.30;;
4601;SDS011;2313;48.552;9.370;2022-08-11T02:40:42;3.40;;;2.30;;
4601;SDS011;2313;48.552;9.370;2022-08-11T02:43:10;2.73;;;2.27;;
4601;SDS011;2313;48.552;9.370;2022-08-11T02:48:57;2.70;;;2.47;;
4601;SDS011;2313;48.552;9.370;2022-08-11T02:52:34;6.03;;;2.50;;
4601;SDS011;2313;48.552;9.370;2022-08-11T02:57:42;2.43;;;2.23;;
4601;SDS011;2313;48.552;9.370;2022-08-11T03:00:14;3.30;;;2.23;;
4601;SDS011;2313;48.552;9.370;2022-08-11T03:02:49;2.60;;;2.20;;
4601;SDS011;2313;48.552;9.370;2022-08-11T03:08:38;3.47;;;2.47;;
4601;SDS011;2313;48.552;9.370;2022-08-11T03:17:33;2.80;;;2.33;;
4601;SDS011;2313;48.552;9.370;2022-08-11T03:25:37;4.67;;;2.30;;
4601;SDS011;2313;48.552;9.370;2022-08-11T03:31:37;2.13;;;1.90;;
4601;SDS011;2313;48.552;9.370;2022-08-11T03:34:13;2.83;;;2.50;;
4601;SDS011;2313;48.552;9.370;2022-08-11T03:45:25;3.10;;;2.13;;
4601;SDS011;2313;48.552;9.370;2022-08-11T03:48:19;5.70;;;2.30;;
4601;SDS011;2313;48.552;9.370;2022-08-11T04:16:00;6.60;;;2.70;;
4601;SDS011;2313;48.552;9.370;2022-08-11T04:39:56;8.67;;;2.70;;
4601;SDS011;2313;48.552;9.370;2022-08-11T04:48:22;13.40;;;3.20;;
4601;SDS011;2313;48.552;9.370;2022-08-11T04:55:19;6.43;;;2.60;;
4601;SDS011;2313;48.552;9.370;2022-08-11T05:16:43;8.07;;;3.33;;
4601;SDS011;2313;48.552;9.370;2022-08-11T05:19:32;8.17;;;3.10;;
4601;SDS011;2313;48.552;9.370;2022-08-11T05:22:17;9.53;;;4.10;;
4601;SDS011;2313;48.552;9.370;2022-08-11T05:28:02;7.90;;;3.17;;
4601;SDS011;2313;48.552;9.370;2022-08-11T05:30:56;9.17;;;3.30;;
4601;SDS011;2313;48.552;9.370;2022-08-11T05:34:00;5.40;;;2.57;;
4601;SDS011;2313;48.552;9.370;2022-08-11T05:36:54;4.73;;;2.83;;
4601;SDS011;2313;48.552;9.370;2022-08-11T05:39:30;2.87;;;2.50;;
4601;SDS011;2313;48.552;9.370;2022-08-11T05:42:22;4.57;;;3.23;;
4601;SDS011;2313;48.552;9.370;2022-08-11T05:45:13;4.60;;;2.73;;
4601;SDS011;2313;48.552;9.370;2022-08-11T05:47:59;5.30;;;2.50;;
4601;SDS011;2313;48.552;9.370;2022-08-11T05:50:51;8.23;;;3.20;;
4601;SDS011;2313;48.552;9.370;2022-08-11T05:53:51;8.00;;;3.27;;
4601;SDS011;2313;48.552;9.370;2022-08-11T05:56:43;9.53;;;3.80;;
4601;SDS011;2313;48.552;9.370;2022-08-11T05:59:15;10.70;;;3.50;;
4601;SDS011;2313;48.552;9.370;2022-08-11T06:01:43;4.50;;;2.77;;
4601;SDS011;2313;48.552;9.370;2022-08-11T06:04:14;6.20;;;3.50;;
4601;SDS011;2313;48.552;9.370;2022-08-11T06:06:47;4.70;;;2.83;;
4601;SDS011;2313;48.552;9.370;2022-08-11T06:09:33;7.30;;;3.30;;
4601;SDS011;2313;48.552;9.370;2022-08-11T06:12:15;6.43;;;3.20;;
4601;SDS011;2313;48.552;9.370;2022-08-11T06:14:44;9.03;;;3.27;;
4601;SDS011;2313;48.552;9.370;2022-08-11T06:17:10;16.30;;;2.87;;
4601;SDS011;2313;48.552;9.370;2022-08-11T06:19:38;6.40;;;3.13;;
4601;SDS011;2313;48.552;9.370;2022-08-11T06:22:07;4.93;;;2.50;;
4601;SDS011;2313;48.552;9.370;2022-08-11T06:24:36;13.20;;;3.67;;
4601;SDS011;2313;48.552;9.370;2022-08-11T06:27:06;11.33;;;3.20;;
4601;SDS011;2313;48.552;9.370;2022-08-11T06:29:33;13.53;;;3.10;;
4601;SDS011;2313;48.552;9.370;2022-08-11T06:32:04;12.03;;;2.73;;
4601;SDS011;2313;48.552;9.370;2022-08-11T06:34:34;12.30;;;2.93;;
4601;SDS011;2313;48.552;9.370;2022-08-11T06:37:22;5.17;;;3.03;;
4601;SDS011;2313;48.552;9.370;2022-08-11T06:40:03;7.40;;;2.80;;
4601;SDS011;2313;48.552;9.370;2022-08-11T06:42:45;5.00;;;2.97;;
4601;SDS011;2313;48.552;9.370;2022-08-11T06:45:22;5.63;;;2.67;;
4601;SDS011;2313;48.552;9.370;2022-08-11T06:47:52;4.73;;;2.50;;
4601;SDS011;2313;48.552;9.370;2022-08-11T06:50:20;7.97;;;3.13;;
4601;SDS011;2313;48.552;9.370;2022-08-11T06:53:06;6.33;;;2.70;;
4601;SDS011;2313;48.552;9.370;2022-08-11T06:55:34;7.03;;;3.37;;
4601;SDS011;2313;48.552;9.370;2022-08-11T06:58:21;4.80;;;2.90;;
4601;SDS011;2313;48.552;9.370;2022-08-11T07:01:10;3.67;;;2.50;;
4601;SDS011;2313;48.552;9.370;2022-08-11T07:03:42;8.40;;;2.77;;
4601;SDS011;2313;48.552;9.370;2022-08-11T07:08:54;10.57;;;2.63;;
4601;SDS011;2313;48.552;9.370;2022-08-11T07:15:10;4.50;;;2.70;;
4601;SDS011;2313;48.552;9.370;2022-08-11T07:17:55;12.50;;;2.80;;
4601;SDS011;2313;48.552;9.370;2022-08-11T07:20:45;3.00;;;2.43;;
4601;SDS011;2313;48.552;9.370;2022-08-11T07:23:30;4.33;;;2.43;;
4601;SDS011;2313;48.552;9.370;2022-08-11T07:26:19;10.43;;;2.83;;
4601;SDS011;2313;48.552;9.370;2022-08-11T07:29:06;4.00;;;2.60;;
4601;SDS011;2313;48.552;9.370;2022-08-11T07:31:37;4.50;;;3.43;;
4601;SDS011;2313;48.552;9.370;2022-08-11T07:36:59;4.30;;;2.07;;
4601;SDS011;2313;48.552;9.370;2022-08-11T07:39:42;3.57;;;3.10;;
4601;SDS011;2313;48.552;9.370;2022-08-11T07:42:09;2.90;;;2.57;;
4601;SDS011;2313;48.552;9.370;2022-08-11T07:44:39;2.93;;;2.63;;
4601;SDS011;2313;48.552;9.370;2022-08-11T07:47:25;5.93;;;2.87;;
4601;SDS011;2313;48.552;9.370;2022-08-11T07:50:10;3.60;;;2.43;;
4601;SDS011;2313;48.552;9.370;2022-08-11T07:52:56;2.80;;;2.60;;
4601;SDS011;2313;48.552;9.370;2022-08-11T07:55:23;2.30;;;2.10;;
4601;SDS011;2313;48.552;9.370;2022-08-11T07:57:50;4.70;;;2.50;;
4601;SDS011;2313;48.552;9.370;2022-08-11T08:00:42;2.50;;;2.23;;
4601;SDS011;2313;48.552;9.370;2022-08-11T08:03:37;3.23;;;2.53;;
4601;SDS011;2313;48.552;9.370;2022-08-11T08:06:23;7.13;;;2.30;;
4601;SDS011;2313;48.552;9.370;2022-08-11T08:09:08;3.07;;;2.63;;
4601;SDS011;2313;48.552;9.370;2022-08-11T08:11:54;3.77;;;2.23;;
4601;SDS011;2313;48.552;9.370;2022-08-11T08:14:39;9.80;;;2.23;;
4601;SDS011;2313;48.552;9.370;2022-08-11T08:17:24;3.10;;;2.37;;
4601;SDS011;2313;48.552;9.370;2022-08-11T08:20:10;4.53;;;2.60;;
4601;SDS011;2313;48.552;9.370;2022-08-11T08:22:40;3.70;;;2.40;;
4601;SDS011;2313;48.552;9.370;2022-08-11T08:25:06;3.83;;;2.30;;
4601;SDS011;2313;48.552;9.370;2022-08-11T08:27:33;9.53;;;2.53;;
4601;SDS011;2313;48.552;9.370;2022-08-11T08:30:00;3.50;;;2.50;;
4601;SDS011;2313;48.552;9.370;2022-08-11T08:32:47;2.77;;;2.33;;
4601;SDS011;2313;48.552;9.370;2022-08-11T08:35:13;2.63;;;2.30;;
4601;SDS011;2313;48.552;9.370;2022-08-11T08:37:40;5.60;;;1.90;;
4601;SDS011;2313;48.552;9.370;2022-08-11T08:40:06;2.40;;;2.30;;
4601;SDS011;2313;48.552;9.370;2022-08-11T08:42:36;4.90;;;2.33;;
4601;SDS011;2313;48.552;9.370;2022-08-11T08:45:11;4.93;;;2.40;;
4601;SDS011;2313;48.552;9.370;2022-08-11T08:47:58;7.47;;;2.53;;
4601;SDS011;2313;48.552;9.370;2022-08-11T08:50:28;3.90;;;2.33;;
4601;SDS011;2313;48.552;9.370;2022-08-11T08:53:17;2.90;;;2.23;;
4601;SDS011;2313;48.552;9.370;2022-08-11T08:55:47;2.70;;;2.50;;
4601;SDS011;2313;48.552;9.370;2022-08-11T08:58:15;5.70;;;2.07;;
4601;SDS011;2313;48.552;9.370;2022-08-11T09:00:44;3.73;;;2.37;;
4601;SDS011;2313;48.552;9.370;2022-08-11T09:03:14;2.17;;;1.97;;
4601;SDS011;2313;48.552;9.370;2022-08-11T09:05:40;3.47;;;2.47;;
4601;SDS011;2313;48.552;9.370;2022-08-11T09:08:07;7.60;;;2.53;;
4601;SDS011;2313;48.552;9.370;2022-08-11T09:10:33;2.10;;;1.90;;
4601;SDS011;2313;48.552;9.370;2022-08-11T09:12:59;3.30;;;2.10;;
4601;SDS011;2313;48.552;9.370;2022-08-11T09:15:28;2.47;;;2.27;;
4601;SDS011;2313;48.552;9.370;2022-08-11T09:17:54;3.50;;;2.20;;
4601;SDS011;2313;48.552;9.370;2022-08-11T09:20:33;5.23;;;1.63;;
4601;SDS011;2313;48.552;9.370;2022-08-11T09:23:03;3.00;;;2.00;;
4601;SDS011;2313;48.552;9.370;2022-08-11T09:25:54;3.00;;;2.57;;
4601;SDS011;2313;48.552;9.370;2022-08-11T09:28:43;3.80;;;2.30;;
4601;SDS011;2313;48.552;9.370;2022-08-11T09:31:11;2.60;;;2.40;;
4601;SDS011;2313;48.552;9.370;2022-08-11T09:33:38;2.50;;;2.30;;
4601;SDS011;2313;48.552;9.370;2022-08-11T09:36:05;3.20;;;2.60;;
4601;SDS011;2313;48.552;9.370;2022-08-11T09:38:51;3.73;;;1.83;;
4601;SDS011;2313;48.552;9.370;2022-08-11T09:41:36;3.27;;;1.60;;
4601;SDS011;2313;48.552;9.370;2022-08-11T09:44:06;3.20;;;2.17;;
4601;SDS011;2313;48.552;9.370;2022-08-11T09:46:52;4.03;;;2.00;;
4601;SDS011;2313;48.552;9.370;2022-08-11T09:49:22;7.27;;;2.17;;
4601;SDS011;2313;48.552;9.370;2022-08-11T09:51:48;2.60;;;1.97;;
4601;SDS011;2313;48.552;9.370;2022-08-11T09:54:15;1.50;;;1.40;;
4601;SDS011;2313;48.552;9.370;2022-08-11T09:56:42;5.80;;;1.90;;
4601;SDS011;2313;48.552;9.370;2022-08-11T09:59:26;2.27;;;2.07;;
4601;SDS011;2313;48.552;9.370;2022-08-11T10:02:10;2.60;;;1.70;;
4601;SDS011;2313;48.552;9.370;2022-08-11T10:04:43;2.10;;;1.90;;
4601;SDS011;2313;48.552;9.370;2022-08-11T10:07:13;8.03;;;2.67;;
4601;SDS011;2313;48.552;9.370;2022-08-11T10:09:50;2.13;;;1.80;;
4601;SDS011;2313;48.552;9.370;2022-08-11T10:14:50;3.43;;;1.73;;
4601;SDS011;2313;48.552;9.370;2022-08-11T10:17:38;3.03;;;1.80;;
4601;SDS011;2313;48.552;9.370;2022-08-11T10:20:31;1.60;;;1.50;;
4601;SDS011;2313;48.552;9.370;2022-08-11T10:22:59;8.10;;;1.90;;
4601;SDS011;2313;48.552;9.370;2022-08-11T10:26:05;1.73;;;1.63;;
4601;SDS011;2313;48.552;9.370;2022-08-11T10:28:51;2.07;;;1.60;;
4601;SDS011;2313;48.552;9.370;2022-08-11T10:31:18;3.93;;;1.60;;
4601;SDS011;2313;48.552;9.370;2022-08-11T10:34:03;3.33;;;1.50;;
4601;SDS011;2313;48.552;9.370;2022-08-11T10:39:07;3.53;;;1.80;;
4601;SDS011;2313;48.552;9.370;2022-08-11T10:41:35;2.03;;;1.37;;
4601;SDS011;2313;48.552;9.370;2022-08-11T10:44:20;1.60;;;1.50;;
4601;SDS011;2313;48.552;9.370;2022-08-11T10:46:47;2.30;;;1.70;;
4601;SDS011;2313;48.552;9.370;2022-08-11T10:49:32;1.73;;;1.50;;
4601;SDS011;2313;48.552;9.370;2022-08-11T10:51:58;1.83;;;1.50;;
4601;SDS011;2313;48.552;9.370;2022-08-11T10:54:44;1.73;;;1.63;;
4601;SDS011;2313;48.552;9.370;2022-08-11T10:57:28;1.77;;;1.37;;
4601;SDS011;2313;48.552;9.370;2022-08-11T11:00:13;3.97;;;1.70;;
4601;SDS011;2313;48.552;9.370;2022-08-11T11:02:41;2.20;;;1.70;;
4601;SDS011;2313;48.552;9.370;2022-08-11T11:10:58;2.97;;;1.63;;
4601;SDS011;2313;48.552;9.370;2022-08-11T11:13:26;2.70;;;1.90;;
4601;SDS011;2313;48.552;9.370;2022-08-11T11:16:11;2.90;;;1.63;;
4601;SDS011;2313;48.552;9.370;2022-08-11T11:18:56;3.53;;;1.50;;
4601;SDS011;2313;48.552;9.370;2022-08-11T11:21:28;2.33;;;1.40;;
4601;SDS011;2313;48.552;9.370;2022-08-11T11:24:13;5.07;;;1.73;;
4601;SDS011;2313;48.552;9.370;2022-08-11T11:27:13;3.33;;;1.37;;
4601;SDS011;2313;48.552;9.370;2022-08-11T11:37:41;1.87;;;1.50;;
4601;SDS011;2313;48.552;9.370;2022-08-11T11:40:12;6.10;;;1.80;;
4601;SDS011;2313;48.552;9.370;2022-08-11T11:42:41;3.57;;;1.43;;
4601;SDS011;2313;48.552;9.370;2022-08-11T11:45:09;2.57;;;1.50;;
4601;SDS011;2313;48.552;9.370;2022-08-11T11:47:39;2.07;;;1.90;;
4601;SDS011;2313;48.552;9.370;2022-08-11T11:50:05;3.40;;;1.67;;
4601;SDS011;2313;48.552;9.370;2022-08-11T11:52:32;5.50;;;1.60;;
4601;SDS011;2313;48.552;9.370;2022-08-11T11:54:59;1.70;;;1.60;;
4601;SDS011;2313;48.552;9.370;2022-08-11T11:57:26;1.80;;;1.50;;
4601;SDS011;2313;48.552;9.370;2022-08-11T12:00:12;6.03;;;1.90;;
4601;SDS011;2313;48.552;9.370;2022-08-11T12:02:57;2.33;;;2.00;;
4601;SDS011;2313;48.552;9.370;2022-08-11T12:05:25;1.50;;;1.40;;
4601;SDS011;2313;48.552;9.370;2022-08-11T12:07:52;2.87;;;1.30;;
4601;SDS011;2313;48.552;9.370;2022-08-11T12:10:39;3.23;;;2.00;;
4601;SDS011;2313;48.552;9.370;2022-08-11T12:13:41;5.53;;;1.60;;
4601;SDS011;2313;48.552;9.370;2022-08-11T12:16:09;6.60;;;1.80;;
4601;SDS011;2313;48.552;9.370;2022-08-11T12:18:37;1.87;;;1.63;;
4601;SDS011;2313;48.552;9.370;2022-08-11T12:21:06;1.60;;;1.40;;
4601;SDS011;2313;48.552;9.370;2022-08-11T12:23:36;1.87;;;1.77;;
4601;SDS011;2313;48.552;9.370;2022-08-11T12:26:21;2.90;;;1.43;;
4601;SDS011;2313;48.552;9.370;2022-08-11T12:29:08;1.80;;;1.30;;
4601;SDS011;2313;48.552;9.370;2022-08-11T12:31:35;2.53;;;1.80;;
4601;SDS011;2313;48.552;9.370;2022-08-11T12:34:05;5.07;;;1.50;;
4601;SDS011;2313;48.552;9.370;2022-08-11T12:37:17;1.47;;;1.30;;
4601;SDS011;2313;48.552;9.370;2022-08-11T12:39:24;2.67;;;1.40;;
4601;SDS011;2313;48.552;9.370;2022-08-11T12:42:16;3.23;;;1.57;;
4601;SDS011;2313;48.552;9.370;2022-08-11T12:45:02;6.20;;;1.70;;
4601;SDS011;2313;48.552;9.370;2022-08-11T12:47:52;8.87;;;2.27;;
4601;SDS011;2313;48.552;9.370;2022-08-11T12:50:55;2.33;;;1.60;;
4601;SDS011;2313;48.552;9.370;2022-08-11T12:53:49;2.77;;;1.37;;
4601;SDS011;2313;48.552;9.370;2022-08-11T12:56:40;2.83;;;2.13;;
4601;SDS011;2313;48.552;9.370;2022-08-11T12:59:27;5.07;;;1.80;;
4601;SDS011;2313;48.552;9.370;2022-08-11T13:02:14;6.93;;;1.30;;
4601;SDS011;2313;48.552;9.370;2022-08-11T13:05:04;2.80;;;1.73;;
4601;SDS011;2313;48.552;9.370;2022-08-11T13:07:36;4.00;;;2.00;;
4601;SDS011;2313;48.552;9.370;2022-08-11T13:10:05;4.17;;;1.50;;
4601;SDS011;2313;48.552;9.370;2022-08-11T13:12:37;2.33;;;1.73;;
4601;SDS011;2313;48.552;9.370;2022-08-11T13:15:19;4.80;;;1.20;;
4601;SDS011;2313;48.552;9.370;2022-08-11T13:17:47;5.67;;;1.80;;
4601;SDS011;2313;48.552;9.370;2022-08-11T13:20:18;6.30;;;1.83;;
4601;SDS011;2313;48.552;9.370;2022-08-11T13:22:49;1.87;;;1.33;;
4601;SDS011;2313;48.552;9.370;2022-08-11T13:25:17;2.73;;;1.93;;
4601;SDS011;2313;48.552;9.370;2022-08-11T13:27:46;1.60;;;1.50;;
4601;SDS011;2313;48.552;9.370;2022-08-11T13:30:13;4.37;;;1.70;;
4601;SDS011;2313;48.552;9.370;2022-08-11T13:32:58;3.10;;;1.80;;
4601;SDS011;2313;48.552;9.370;2022-08-11T13:35:25;2.67;;;1.40;;
4601;SDS011;2313;48.552;9.370;2022-08-11T13:37:55;2.93;;;1.43;;
4601;SDS011;2313;48.552;9.370;2022-08-11T13:40:22;1.83;;;1.73;;
4601;SDS011;2313;48.552;9.370;2022-08-11T13:42:49;1.80;;;1.70;;
4601;SDS011;2313;48.552;9.370;2022-08-11T13:45:16;1.73;;;1.60;;
4601;SDS011;2313;48.552;9.370;2022-08-11T13:47:43;4.40;;;1.40;;
4601;SDS011;2313;48.552;9.370;2022-08-11T13:50:10;2.40;;;2.20;;
4601;SDS011;2313;48.552;9.370;2022-08-11T13:52:38;9.30;;;2.13;;
4601;SDS011;2313;48.552;9.370;2022-08-11T13:55:05;2.67;;;2.00;;
4601;SDS011;2313;48.552;9.370;2022-08-11T13:57:34;3.43;;;1.50;;
4601;SDS011;2313;48.552;9.370;2022-08-11T14:00:02;3.17;;;1.50;;
4601;SDS011;2313;48.552;9.370;2022-08-11T14:02:34;2.50;;;2.00;;
4601;SDS011;2313;48.552;9.370;2022-08-11T14:07:36;1.70;;;1.60;;
4601;SDS011;2313;48.552;9.370;2022-08-11T14:10:04;1.80;;;1.70;;
4601;SDS011;2313;48.552;9.370;2022-08-11T14:12:33;2.10;;;1.57;;
4601;SDS011;2313;48.552;9.370;2022-08-11T14:15:20;9.50;;;1.83;;
4601;SDS011;2313;48.552;9.370;2022-08-11T14:17:50;1.77;;;1.67;;
4601;SDS011;2313;48.552;9.370;2022-08-11T14:20:25;3.40;;;1.60;;
4601;SDS011;2313;48.552;9.370;2022-08-11T14:23:14;5.33;;;1.50;;
4601;SDS011;2313;48.552;9.370;2022-08-11T14:25:40;6.63;;;1.67;;
4601;SDS011;2313;48.552;9.370;2022-08-11T14:28:26;1.70;;;1.60;;
4601;SDS011;2313;48.552;9.370;2022-08-11T14:30:53;3.23;;;1.20;;
4601;SDS011;2313;48.552;9.370;2022-08-11T14:33:19;1.47;;;1.37;;
4601;SDS011;2313;48.552;9.370;2022-08-11T14:35:45;2.13;;;1.20;;
4601;SDS011;2313;48.552;9.370;2022-08-11T14:38:11;1.90;;;1.80;;
4601;SDS011;2313;48.552;9.370;2022-08-11T14:40:37;5.70;;;1.93;;
4601;SDS011;2313;48.552;9.370;2022-08-11T14:43:21;3.10;;;1.70;;
4601;SDS011;2313;48.552;9.370;2022-08-11T14:46:07;1.50;;;1.40;;
4601;SDS011;2313;48.552;9.370;2022-08-11T14:48:52;7.63;;;1.70;;
4601;SDS011;2313;48.552;9.370;2022-08-11T14:51:18;9.80;;;1.90;;
4601;SDS011;2313;48.552;9.370;2022-08-11T14:53:46;3.83;;;1.90;;
4601;SDS011;2313;48.552;9.370;2022-08-11T14:56:12;10.57;;;2.30;;
4601;SDS011;2313;48.552;9.370;2022-08-11T14:58:57;6.80;;;2.23;;
4601;SDS011;2313;48.552;9.370;2022-08-11T15:01:24;2.90;;;2.07;;
4601;SDS011;2313;48.552;9.370;2022-08-11T15:04:09;2.20;;;1.13;;
4601;SDS011;2313;48.552;9.370;2022-08-11T15:06:35;2.63;;;1.43;;
4601;SDS011;2313;48.552;9.370;2022-08-11T15:09:02;1.97;;;1.60;;
4601;SDS011;2313;48.552;9.370;2022-08-11T15:11:30;3.00;;;1.90;;
4601;SDS011;2313;48.552;9.370;2022-08-11T15:14:15;2.83;;;1.50;;
4601;SDS011;2313;48.552;9.370;2022-08-11T15:17:02;3.37;;;1.53;;
4601;SDS011;2313;48.552;9.370;2022-08-11T15:19:34;6.17;;;1.50;;
4601;SDS011;2313;48.552;9.370;2022-08-11T15:22:23;3.33;;;1.70;;
4601;SDS011;2313;48.552;9.370;2022-08-11T15:25:09;3.07;;;1.53;;
4601;SDS011;2313;48.552;9.370;2022-08-11T15:27:35;1.40;;;1.30;;
4601;SDS011;2313;48.552;9.370;2022-08-11T15:30:20;2.23;;;1.50;;
4601;SDS011;2313;48.552;9.370;2022-08-11T15:33:07;1.93;;;1.70;;
4601;SDS011;2313;48.552;9.370;2022-08-11T15:35:53;3.70;;;1.37;;
4601;SDS011;2313;48.552;9.370;2022-08-11T15:38:40;6.03;;;1.60;;
4601;SDS011;2313;48.552;9.370;2022-08-11T15:41:11;3.87;;;1.70;;
4601;SDS011;2313;48.552;9.370;2022-08-11T15:43:59;2.23;;;1.17;;
4601;SDS011;2313;48.552;9.370;2022-08-11T15:46:49;1.33;;;1.23;;
4601;SDS011;2313;48.552;9.370;2022-08-11T15:49:27;1.67;;;1.50;;
4601;SDS011;2313;48.552;9.370;2022-08-11T15:51:56;4.03;;;1.47;;
4601;SDS011;2313;48.552;9.370;2022-08-11T15:54:30;2.50;;;1.47;;
4601;SDS011;2313;48.552;9.370;2022-08-11T15:56:58;4.03;;;1.60;;
4601;SDS011;2313;48.552;9.370;2022-08-11T15:59:26;3.33;;;1.60;;
4601;SDS011;2313;48.552;9.370;2022-08-11T16:02:14;2.30;;;1.67;;
4601;SDS011;2313;48.552;9.370;2022-08-11T16:04:52;1.60;;;1.50;;
4601;SDS011;2313;48.552;9.370;2022-08-11T16:07:20;1.80;;;1.67;;
4601;SDS011;2313;48.552;9.370;2022-08-11T16:12:22;2.50;;;1.50;;
4601;SDS011;2313;48.552;9.370;2022-08-11T16:14:57;2.30;;;1.50;;
4601;SDS011;2313;48.552;9.370;2022-08-11T16:17:45;3.07;;;1.57;;
4601;SDS011;2313;48.552;9.370;2022-08-11T16:20:16;5.77;;;1.63;;
4601;SDS011;2313;48.552;9.370;2022-08-11T16:22:46;5.37;;;1.83;;
4601;SDS011;2313;48.552;9.370;2022-08-11T16:25:16;3.53;;;1.60;;
4601;SDS011;2313;48.552;9.370;2022-08-11T16:27:46;2.40;;;1.40;;
4601;SDS011;2313;48.552;9.370;2022-08-11T16:30:21;2.50;;;1.20;;
4601;SDS011;2313;48.552;9.370;2022-08-11T16:32:47;1.33;;;1.23;;
4601;SDS011;2313;48.552;9.370;2022-08-11T16:35:19;1.90;;;1.70;;
4601;SDS011;2313;48.552;9.370;2022-08-11T16:38:06;2.40;;;1.70;;
4601;SDS011;2313;48.552;9.370;2022-08-11T16:40:53;4.70;;;1.40;;
4601;SDS011;2313;48.552;9.370;2022-08-11T16:43:21;5.37;;;2.00;;
4601;SDS011;2313;48.552;9.370;2022-08-11T16:46:07;2.07;;;1.27;;
4601;SDS011;2313;48.552;9.370;2022-08-11T16:48:54;4.40;;;1.60;;
4601;SDS011;2313;48.552;9.370;2022-08-11T16:51:22;1.60;;;1.50;;
4601;SDS011;2313;48.552;9.370;2022-08-11T16:53:48;1.67;;;1.57;;
4601;SDS011;2313;48.552;9.370;2022-08-11T16:56:15;1.63;;;1.53;;
4601;SDS011;2313;48.552;9.370;2022-08-11T16:58:51;2.70;;;1.53;;
4601;SDS011;2313;48.552;9.370;2022-08-11T17:01:37;1.43;;;1.30;;
4601;SDS011;2313;48.552;9.370;2022-08-11T17:04:07;7.30;;;2.10;;
4601;SDS011;2313;48.552;9.370;2022-08-11T17:06:58;2.50;;;1.57;;
4601;SDS011;2313;48.552;9.370;2022-08-11T17:09:42;2.20;;;1.53;;
4601;SDS011;2313;48.552;9.370;2022-08-11T17:12:29;3.30;;;1.43;;
4601;SDS011;2313;48.552;9.370;2022-08-11T17:15:17;3.40;;;1.97;;
4601;SDS011;2313;48.552;9.370;2022-08-11T17:18:03;2.67;;;1.70;;
4601;SDS011;2313;48.552;9.370;2022-08-11T17:20:31;6.23;;;1.70;;
4601;SDS011;2313;48.552;9.370;2022-08-11T17:22:59;1.93;;;1.73;;
4601;SDS011;2313;48.552;9.370;2022-08-11T17:25:45;2.90;;;1.50;;
4601;SDS011;2313;48.552;9.370;2022-08-11T17:28:12;5.13;;;1.50;;
4601;SDS011;2313;48.552;9.370;2022-08-11T17:30:41;1.60;;;1.50;;
4601;SDS011;2313;48.552;9.370;2022-08-11T17:33:26;2.33;;;1.67;;
4601;SDS011;2313;48.552;9.370;2022-08-11T17:36:13;5.43;;;1.50;;
4601;SDS011;2313;48.552;9.370;2022-08-11T17:38:41;2.00;;;1.80;;
4601;SDS011;2313;48.552;9.370;2022-08-11T17:41:08;1.87;;;1.20;;
4601;SDS011;2313;48.552;9.370;2022-08-11T17:43:52;3.13;;;1.60;;
4601;SDS011;2313;48.552;9.370;2022-08-11T17:46:38;1.80;;;1.70;;
4601;SDS011;2313;48.552;9.370;2022-08-11T17:49:23;3.10;;;1.70;;
4601;SDS011;2313;48.552;9.370;2022-08-11T17:51:50;3.20;;;1.70;;
4601;SDS011;2313;48.552;9.370;2022-08-11T17:54:36;5.60;;;1.40;;
4601;SDS011;2313;48.552;9.370;2022-08-11T17:57:23;1.37;;;1.20;;
4601;SDS011;2313;48.552;9.370;2022-08-11T18:00:09;2.80;;;1.60;;
4601;SDS011;2313;48.552;9.370;2022-08-11T18:02:40;1.60;;;1.40;;
4601;SDS011;2313;48.552;9.370;2022-08-11T18:05:27;2.70;;;1.60;;
4601;SDS011;2313;48.552;9.370;2022-08-11T18:07:56;1.43;;;1.27;;
4601;SDS011;2313;48.552;9.370;2022-08-11T18:10:44;1.97;;;1.60;;
4601;SDS011;2313;48.552;9.370;2022-08-11T18:13:30;7.13;;;2.00;;
4601;SDS011;2313;48.552;9.370;2022-08-11T18:16:18;2.73;;;1.70;;
4601;SDS011;2313;48.552;9.370;2022-08-11T18:19:04;2.73;;;1.40;;
4601;SDS011;2313;48.552;9.370;2022-08-11T18:21:49;5.70;;;2.17;;
4601;SDS011;2313;48.552;9.370;2022-08-11T18:24:41;3.23;;;1.43;;
4601;SDS011;2313;48.552;9.370;2022-08-11T18:27:29;3.43;;;1.60;;
4601;SDS011;2313;48.552;9.370;2022-08-11T18:30:16;1.73;;;1.63;;
4601;SDS011;2313;48.552;9.370;2022-08-11T18:33:01;5.50;;;1.23;;
4601;SDS011;2313;48.552;9.370;2022-08-11T18:35:49;4.43;;;2.33;;
4601;SDS011;2313;48.552;9.370;2022-08-11T18:38:41;5.60;;;2.20;;
4601;SDS011;2313;48.552;9.370;2022-08-11T18:41:28;3.80;;;1.50;;
4601;SDS011;2313;48.552;9.370;2022-08-11T18:44:17;3.73;;;1.60;;
4601;SDS011;2313;48.552;9.370;2022-08-11T18:47:04;1.37;;;1.27;;
4601;SDS011;2313;48.552;9.370;2022-08-11T18:49:53;3.10;;;2.00;;
4601;SDS011;2313;48.552;9.370;2022-08-11T18:52:42;2.30;;;1.70;;
4601;SDS011;2313;48.552;9.370;2022-08-11T18:55:30;5.03;;;1.80;;
4601;SDS011;2313;48.552;9.370;2022-08-11T18:58:16;2.60;;;1.87;;
4601;SDS011;2313;48.552;9.370;2022-08-11T19:01:09;1.90;;;1.60;;
4601;SDS011;2313;48.552;9.370;2022-08-11T19:03:56;2.30;;;1.40;;
4601;SDS011;2313;48.552;9.370;2022-08-11T19:06:42;3.00;;;1.53;;
4601;SDS011;2313;48.552;9.370;2022-08-11T19:09:28;1.70;;;1.60;;
4601;SDS011;2313;48.552;9.370;2022-08-11T19:12:13;7.73;;;1.67;;
4601;SDS011;2313;48.552;9.370;2022-08-11T19:14:59;4.10;;;1.60;;
4601;SDS011;2313;48.552;9.370;2022-08-11T19:17:45;5.57;;;1.73;;
4601;SDS011;2313;48.552;9.370;2022-08-11T19:20:31;3.53;;;1.63;;
4601;SDS011;2313;48.552;9.370;2022-08-11T19:23:19;2.40;;;1.63;;
4601;SDS011;2313;48.552;9.370;2022-08-11T19:26:10;4.70;;;2.30;;
4601;SDS011;2313;48.552;9.370;2022-08-11T19:28:55;3.33;;;2.40;;
4601;SDS011;2313;48.552;9.370;2022-08-11T19:31:40;7.17;;;1.73;;
4601;SDS011;2313;48.552;9.370;2022-08-11T19:34:26;8.93;;;1.67;;
4601;SDS011;2313;48.552;9.370;2022-08-11T19:37:13;4.50;;;1.60;;
4601;SDS011;2313;48.552;9.370;2022-08-11T19:40:04;5.50;;;1.70;;
4601;SDS011;2313;48.552;9.370;2022-08-11T19:42:51;6.83;;;1.73;;
4601;SDS011;2313;48.552;9.370;2022-08-11T19:45:37;12.57;;;1.90;;
4601;SDS011;2313;48.552;9.370;2022-08-11T19:48:23;2.70;;;1.70;;
4601;SDS011;2313;48.552;9.370;2022-08-11T19:51:09;5.30;;;1.73;;
4601;SDS011;2313;48.552;9.370;2022-08-11T19:53:54;2.73;;;1.73;;
4601;SDS011;2313;48.552;9.370;2022-08-11T19:56:40;2.53;;;1.63;;
4601;SDS011;2313;48.552;9.370;2022-08-11T19:59:28;4.20;;;2.00;;
4601;SDS011;2313;48.552;9.370;2022-08-11T20:02:17;4.10;;;1.87;;
4601;SDS011;2313;48.552;9.370;2022-08-11T20:05:05;3.13;;;2.07;;
4601;SDS011;2313;48.552;9.370;2022-08-11T20:07:50;4.77;;;2.07;;
4601;SDS011;2313;48.552;9.370;2022-08-11T20:10:37;8.13;;;2.20;;